createdAt,value
2023-01-22T00:01:12.741Z,4.00
2023-01-22T00:03:40.635Z,4.47
2023-01-22T00:06:09.021Z,3.50
2023-01-22T00:08:36.380Z,4.37
2023-01-22T00:11:03.824Z,4.50
2023-01-22T00:13:31.138Z,4.13
2023-01-22T00:15:59.283Z,4.07
2023-01-22T00:18:27.034Z,4.87
2023-01-22T00:20:55.143Z,4.67
2023-01-22T00:23:22.463Z,3.50
2023-01-22T00:25:49.768Z,4.40
2023-01-22T00:28:17.171Z,4.13
2023-01-22T00:30:44.615Z,3.70
2023-01-22T00:33:11.970Z,4.20
2023-01-22T00:35:39.770Z,4.47
2023-01-22T00:38:07.095Z,5.07
2023-01-22T00:40:34.662Z,3.70
2023-01-22T00:43:01.936Z,4.60
2023-01-22T00:45:30.645Z,4.17
2023-01-22T00:47:57.893Z,3.70
2023-01-22T00:50:25.205Z,4.63
2023-01-22T00:52:52.579Z,4.03
2023-01-22T00:55:20.062Z,3.43
2023-01-22T00:57:47.423Z,3.93
2023-01-22T01:00:15.574Z,3.10
2023-01-22T01:03:01.641Z,3.73
2023-01-22T01:05:29.203Z,4.20
2023-01-22T01:07:56.501Z,4.37
2023-01-22T01:10:23.726Z,3.97
2023-01-22T01:12:51.039Z,3.27
2023-01-22T01:15:20.469Z,3.77
2023-01-22T01:17:47.723Z,4.03
2023-01-22T01:20:15.700Z,3.87
2023-01-22T01:22:43.119Z,3.30
2023-01-22T01:25:10.364Z,3.00
2023-01-22T01:27:37.644Z,4.40
2023-01-22T01:30:05.135Z,3.80
2023-01-22T01:32:32.717Z,3.20
2023-01-22T01:35:00.051Z,4.37
2023-01-22T01:37:27.474Z,4.00
2023-01-22T01:39:54.751Z,2.83
2023-01-22T01:42:31.790Z,3.37
2023-01-22T01:45:19.311Z,3.43
2023-01-22T01:47:47.250Z,3.03
2023-01-22T01:50:14.900Z,2.70
2023-01-22T01:52:42.246Z,3.13
2023-01-22T01:55:11.672Z,2.87
2023-01-22T01:57:39.361Z,3.20
2023-01-22T02:00:10.591Z,2.87
2023-01-22T02:02:41.530Z,3.43
2023-01-22T02:05:09.878Z,3.17
2023-01-22T02:07:37.501Z,3.23
2023-01-22T02:10:06.277Z,2.63
2023-01-22T02:12:36.672Z,3.10
2023-01-22T02:15:04.741Z,3.47
2023-01-22T02:17:32.835Z,2.67
2023-01-22T02:20:00.264Z,3.00
2023-01-22T02:22:32.048Z,2.67
2023-01-22T02:25:00.633Z,2.77
2023-01-22T02:27:28.186Z,2.60
2023-01-22T02:29:55.544Z,3.00
2023-01-22T02:32:23.040Z,3.07
2023-01-22T02:34:50.378Z,3.17
2023-01-22T02:37:18.099Z,2.70
2023-01-22T02:39:45.467Z,3.17
2023-01-22T02:42:12.888Z,2.73
2023-01-22T02:44:41.881Z,3.27
2023-01-22T02:47:09.364Z,2.67
2023-01-22T02:49:36.833Z,3.03
2023-01-22T02:52:04.266Z,2.77
2023-01-22T02:54:31.974Z,2.83
2023-01-22T02:56:59.385Z,3.20
2023-01-22T02:59:26.883Z,2.93
2023-01-22T03:01:54.275Z,2.80
2023-01-22T03:04:21.559Z,3.43
2023-01-22T03:06:48.930Z,2.57
2023-01-22T03:09:17.339Z,3.20
2023-01-22T03:11:45.892Z,2.87
2023-01-22T03:14:35.982Z,2.60
2023-01-22T03:17:21.995Z,2.90
2023-01-22T03:20:08.097Z,2.53
2023-01-22T03:22:35.428Z,2.40
2023-01-22T03:25:02.880Z,2.93
2023-01-22T03:27:31.935Z,3.30
2023-01-22T03:29:59.648Z,3.57
2023-01-22T03:32:27.364Z,2.97
2023-01-22T03:34:55.616Z,2.47
2023-01-22T03:37:26.251Z,2.73
2023-01-22T03:39:57.333Z,2.27
2023-01-22T03:42:35.441Z,3.00
2023-01-22T03:45:02.904Z,3.00
2023-01-22T03:47:30.921Z,2.50
2023-01-22T03:49:58.493Z,2.27
2023-01-22T03:52:25.842Z,2.63
2023-01-22T03:54:53.206Z,2.43
2023-01-22T03:57:20.527Z,2.47
2023-01-22T03:59:47.864Z,2.57
2023-01-22T04:02:15.996Z,2.50
2023-01-22T04:05:00.115Z,2.77
2023-01-22T04:07:28.585Z,2.50
2023-01-22T04:09:56.130Z,2.80
2023-01-22T04:12:23.658Z,2.57
2023-01-22T04:14:51.956Z,2.77
2023-01-22T04:17:19.432Z,2.33
2023-01-22T04:20:05.003Z,2.20
2023-01-22T04:22:52.837Z,3.40
2023-01-22T04:25:20.190Z,3.23
2023-01-22T04:27:48.259Z,2.57
2023-01-22T04:30:18.597Z,2.63
2023-01-22T04:32:48.717Z,2.80
2023-01-22T04:35:27.348Z,2.30
2023-01-22T04:37:57.242Z,2.17
2023-01-22T04:40:24.825Z,2.43
2023-01-22T04:42:52.165Z,3.47
2023-01-22T04:45:19.714Z,2.87
2023-01-22T04:47:48.415Z,2.13
2023-01-22T04:50:20.309Z,2.77
2023-01-22T04:52:47.840Z,3.03
2023-01-22T04:55:15.297Z,2.07
2023-01-22T04:58:01.739Z,2.77
2023-01-22T05:00:30.393Z,2.67
2023-01-22T05:02:59.889Z,2.07
2023-01-22T05:05:29.121Z,2.30
2023-01-22T05:07:58.014Z,2.93
2023-01-22T05:10:25.515Z,2.83
2023-01-22T05:12:53.981Z,2.97
2023-01-22T05:15:24.750Z,2.70
2023-01-22T05:17:55.377Z,2.67
2023-01-22T05:20:22.811Z,3.20
2023-01-22T05:22:50.157Z,2.10
2023-01-22T05:25:21.660Z,2.37
2023-01-22T05:27:48.999Z,2.63
2023-01-22T05:30:27.932Z,2.70
2023-01-22T05:33:00.142Z,2.53
2023-01-22T05:35:28.809Z,2.77
2023-01-22T05:37:57.268Z,2.30
2023-01-22T05:40:25.006Z,2.20
2023-01-22T05:42:53.624Z,2.57
2023-01-22T05:45:22.000Z,3.03
2023-01-22T05:48:12.605Z,2.73
2023-01-22T05:50:49.397Z,2.37
2023-01-22T05:53:16.700Z,2.27
2023-01-22T05:55:44.086Z,1.90
2023-01-22T05:58:11.375Z,2.37
2023-01-22T06:00:42.031Z,3.03
2023-01-22T06:03:11.204Z,2.70
2023-01-22T06:05:46.555Z,2.63
2023-01-22T06:08:15.930Z,3.00
2023-01-22T06:10:50.334Z,2.67
2023-01-22T06:13:19.016Z,2.60
2023-01-22T06:15:49.007Z,2.63
2023-01-22T06:18:36.078Z,2.20
2023-01-22T06:21:04.704Z,2.57
2023-01-22T06:23:32.541Z,2.07
2023-01-22T06:26:01.409Z,2.40
2023-01-22T06:28:30.139Z,2.60
2023-01-22T06:30:59.637Z,2.60
2023-01-22T06:33:26.964Z,2.30
2023-01-22T06:35:55.115Z,2.70
2023-01-22T06:38:23.580Z,2.33
2023-01-22T06:40:54.779Z,2.50
2023-01-22T06:43:22.363Z,2.27
2023-01-22T06:45:51.235Z,2.77
2023-01-22T06:48:21.905Z,2.97
2023-01-22T06:50:49.535Z,2.37
2023-01-22T06:53:17.037Z,2.27
2023-01-22T06:55:44.341Z,2.60
2023-01-22T06:58:12.472Z,2.00
2023-01-22T07:00:39.934Z,2.30
2023-01-22T07:03:08.126Z,2.50
2023-01-22T07:05:35.970Z,1.97
2023-01-22T07:08:03.347Z,2.20
2023-01-22T07:10:30.691Z,2.10
2023-01-22T07:13:02.623Z,2.07
2023-01-22T07:15:29.917Z,1.60
2023-01-22T07:17:57.277Z,2.00
2023-01-22T07:20:24.853Z,1.97
2023-01-22T07:22:52.374Z,2.70
2023-01-22T07:25:20.280Z,2.23
2023-01-22T07:27:47.636Z,2.17
2023-01-22T07:30:15.113Z,1.90
2023-01-22T07:32:42.436Z,2.03
2023-01-22T07:35:09.829Z,1.97
2023-01-22T07:37:37.178Z,1.80
2023-01-22T07:40:05.866Z,1.97
2023-01-22T07:42:33.157Z,1.70
2023-01-22T07:45:00.440Z,1.63
2023-01-22T07:47:27.767Z,1.73
2023-01-22T07:49:55.034Z,1.67
2023-01-22T07:52:22.425Z,2.00
2023-01-22T07:54:49.777Z,1.70
2023-01-22T07:57:17.503Z,2.03
2023-01-22T07:59:44.960Z,1.83
2023-01-22T08:02:16.571Z,1.40
2023-01-22T08:04:44.120Z,1.53
2023-01-22T08:07:18.135Z,1.83
2023-01-22T08:09:45.612Z,1.67
2023-01-22T08:12:12.933Z,2.33
2023-01-22T08:14:40.230Z,1.47
2023-01-22T08:17:07.622Z,1.53
2023-01-22T08:19:37.365Z,1.97
2023-01-22T08:22:05.668Z,2.20
2023-01-22T08:24:34.396Z,2.10
2023-01-22T08:27:02.019Z,2.17
2023-01-22T08:29:29.409Z,1.90
2023-01-22T08:31:56.833Z,2.47
2023-01-22T08:34:24.241Z,1.80
2023-01-22T08:36:51.507Z,1.50
2023-01-22T08:39:18.920Z,2.37
2023-01-22T08:41:46.153Z,1.80
2023-01-22T08:44:13.978Z,1.50
2023-01-22T08:46:43.512Z,1.90
2023-01-22T08:49:10.918Z,1.70
2023-01-22T08:51:38.229Z,2.00
2023-01-22T08:54:05.729Z,2.07
2023-01-22T08:56:33.052Z,1.63
2023-01-22T08:59:06.214Z,2.30
2023-01-22T09:01:34.032Z,1.77
2023-01-22T09:04:01.575Z,2.00
2023-01-22T09:06:29.203Z,2.07
2023-01-22T09:08:58.867Z,1.77
2023-01-22T09:11:26.186Z,1.80
2023-01-22T09:13:56.168Z,1.60
2023-01-22T09:16:27.189Z,2.20
2023-01-22T09:18:54.762Z,1.77
2023-01-22T09:21:22.153Z,1.93
2023-01-22T09:23:49.693Z,1.93
2023-01-22T09:26:17.038Z,2.13
2023-01-22T09:28:44.344Z,1.80
2023-01-22T09:31:15.245Z,1.70
2023-01-22T09:33:42.612Z,1.83
2023-01-22T09:36:11.443Z,1.87
2023-01-22T09:38:39.055Z,2.03
2023-01-22T09:41:34.218Z,2.33
2023-01-22T09:44:03.732Z,1.83
2023-01-22T09:46:34.572Z,2.78
2023-01-22T09:49:03.695Z,2.50
2023-01-22T09:51:31.112Z,2.97
2023-01-22T09:53:59.873Z,1.97
2023-01-22T09:56:30.562Z,1.87
2023-01-22T09:58:58.206Z,2.10
2023-01-22T10:01:25.691Z,2.27
2023-01-22T10:03:59.161Z,2.37
2023-01-22T10:06:28.340Z,1.90
2023-01-22T10:09:12.635Z,2.78
2023-01-22T10:11:39.999Z,1.80
2023-01-22T10:14:09.496Z,2.00
2023-01-22T10:16:37.825Z,2.00
2023-01-22T10:19:05.174Z,2.23
2023-01-22T10:21:35.030Z,2.07
2023-01-22T10:24:02.340Z,1.83
2023-01-22T10:26:29.599Z,1.90
2023-01-22T10:28:58.456Z,2.00
2023-01-22T10:31:28.992Z,2.37
2023-01-22T10:33:58.047Z,2.07
2023-01-22T10:36:25.692Z,1.70
2023-01-22T10:39:02.955Z,2.30
2023-01-22T10:41:30.907Z,1.80
2023-01-22T10:44:07.876Z,2.10
2023-01-22T10:46:35.181Z,1.60
2023-01-22T10:49:03.328Z,2.10
2023-01-22T10:51:41.773Z,2.50
2023-01-22T10:54:21.093Z,1.97
2023-01-22T10:56:49.062Z,2.30
2023-01-22T10:59:23.134Z,1.70
2023-01-22T11:01:56.258Z,1.80
2023-01-22T11:04:26.615Z,1.73
2023-01-22T11:06:56.821Z,2.73
2023-01-22T11:09:40.363Z,2.00
2023-01-22T11:12:16.676Z,1.93
2023-01-22T11:14:46.310Z,1.97
2023-01-22T11:17:27.029Z,1.50
2023-01-22T11:20:04.879Z,1.83
2023-01-22T11:22:34.597Z,1.77
2023-01-22T11:25:02.880Z,2.20
2023-01-22T11:27:49.081Z,1.60
2023-01-22T11:30:27.048Z,2.27
2023-01-22T11:33:16.852Z,2.00
2023-01-22T11:36:02.220Z,1.87
2023-01-22T11:38:37.190Z,1.93
2023-01-22T11:41:07.742Z,1.97
2023-01-22T11:43:38.014Z,2.27
2023-01-22T11:46:14.630Z,2.20
2023-01-22T11:48:55.780Z,1.83
2023-01-22T11:51:29.259Z,2.00
2023-01-22T11:54:15.073Z,2.13
2023-01-22T11:57:06.304Z,1.87
2023-01-22T11:59:56.676Z,2.13
2023-01-22T12:02:42.923Z,1.90
2023-01-22T12:05:12.427Z,2.20
2023-01-22T12:07:53.532Z,1.80
2023-01-22T12:10:21.133Z,1.97
2023-01-22T12:12:51.820Z,1.93
2023-01-22T12:15:19.188Z,2.27
2023-01-22T12:17:49.817Z,1.50
2023-01-22T12:20:33.629Z,1.87
2023-01-22T12:23:11.231Z,2.10
2023-01-22T12:25:47.155Z,1.90
2023-01-22T12:28:19.740Z,1.70
2023-01-22T12:30:53.802Z,2.30
2023-01-22T12:33:23.355Z,1.73
2023-01-22T12:35:52.323Z,2.07
2023-01-22T12:38:32.921Z,3.00
2023-01-22T12:41:03.454Z,2.10
2023-01-22T12:43:51.050Z,1.70
2023-01-22T12:46:37.430Z,1.50
2023-01-22T12:49:09.204Z,2.07
2023-01-22T12:51:38.508Z,2.17
2023-01-22T12:54:24.893Z,2.03
2023-01-22T12:56:57.666Z,1.63
2023-01-22T12:59:37.429Z,1.67
2023-01-22T13:02:06.530Z,1.90
2023-01-22T13:04:34.662Z,2.43
2023-01-22T13:07:06.746Z,2.37
2023-01-22T13:09:37.799Z,1.60
2023-01-22T13:12:09.554Z,2.10
2023-01-22T13:14:41.006Z,2.43
2023-01-22T13:17:18.322Z,1.97
2023-01-22T13:19:46.519Z,1.77
2023-01-22T13:22:16.507Z,1.50
2023-01-22T13:24:57.627Z,1.97
2023-01-22T13:27:28.209Z,1.93
2023-01-22T13:30:09.387Z,1.80
2023-01-22T13:32:36.904Z,1.90
2023-01-22T13:35:05.622Z,2.00
2023-01-22T13:37:35.846Z,1.90
2023-01-22T13:40:23.079Z,1.93
2023-01-22T13:42:51.406Z,1.70
2023-01-22T13:45:22.069Z,2.07
2023-01-22T13:47:50.869Z,1.53
2023-01-22T13:50:19.814Z,1.90
2023-01-22T13:52:48.007Z,2.00
2023-01-22T13:55:17.725Z,1.97
2023-01-22T13:57:51.827Z,1.70
2023-01-22T14:00:23.356Z,1.90
2023-01-22T14:02:51.215Z,1.70
2023-01-22T14:05:19.864Z,2.10
2023-01-22T14:07:47.487Z,2.47
2023-01-22T14:10:21.875Z,2.43
2023-01-22T14:12:59.904Z,2.20
2023-01-22T14:15:27.428Z,1.60
2023-01-22T14:17:54.875Z,2.10
2023-01-22T14:20:22.488Z,1.90
2023-01-22T14:22:49.893Z,1.73
2023-01-22T14:25:17.453Z,1.90
2023-01-22T14:27:46.846Z,2.00
2023-01-22T14:30:15.290Z,1.87
2023-01-22T14:32:43.406Z,2.17
2023-01-22T14:35:18.323Z,2.07
2023-01-22T14:37:45.925Z,1.83
2023-01-22T14:40:14.262Z,2.67
2023-01-22T14:42:41.886Z,2.37
2023-01-22T14:45:10.051Z,2.37
2023-01-22T14:47:37.625Z,2.57
2023-01-22T14:50:05.595Z,2.13
2023-01-22T14:52:33.259Z,1.97
2023-01-22T14:55:00.814Z,1.93
2023-01-22T14:57:28.341Z,2.30
2023-01-22T14:59:55.803Z,2.27
2023-01-22T15:02:23.261Z,2.30
2023-01-22T15:04:50.891Z,2.20
2023-01-22T15:07:18.283Z,1.73
2023-01-22T15:09:45.821Z,2.17
2023-01-22T15:12:13.344Z,2.20
2023-01-22T15:14:40.782Z,2.23
2023-01-22T15:17:08.296Z,2.17
2023-01-22T15:19:41.165Z,2.20
2023-01-22T15:22:09.381Z,2.00
2023-01-22T15:24:39.400Z,1.97
2023-01-22T15:27:07.624Z,1.70
2023-01-22T15:29:35.208Z,1.87
2023-01-22T15:32:02.908Z,2.57
2023-01-22T15:34:33.309Z,2.63
2023-01-22T15:37:01.122Z,2.77
2023-01-22T15:39:28.564Z,2.67
2023-01-22T15:41:56.093Z,2.53
2023-01-22T15:44:23.579Z,2.47
2023-01-22T15:46:51.081Z,2.03
2023-01-22T15:49:18.568Z,2.10
2023-01-22T15:51:45.998Z,2.27
2023-01-22T15:54:15.264Z,1.70
2023-01-22T15:56:42.647Z,3.07
2023-01-22T15:59:11.041Z,2.57
2023-01-22T16:01:38.796Z,2.77
2023-01-22T16:04:06.653Z,2.47
2023-01-22T16:06:34.991Z,2.70
2023-01-22T16:09:03.537Z,2.53
2023-01-22T16:11:32.847Z,2.50
2023-01-22T16:14:00.585Z,2.77
2023-01-22T16:16:32.641Z,2.50
2023-01-22T16:19:01.287Z,2.63
2023-01-22T16:21:28.900Z,2.30
2023-01-22T16:24:02.546Z,2.40
2023-01-22T16:26:31.397Z,1.93
2023-01-22T16:28:59.545Z,2.57
2023-01-22T16:31:28.840Z,3.00
2023-01-22T16:34:00.465Z,2.90
2023-01-22T16:36:30.980Z,2.20
2023-01-22T16:38:58.462Z,1.90
2023-01-22T16:41:30.153Z,2.47
2023-01-22T16:44:08.521Z,2.57
2023-01-22T16:46:37.557Z,2.90
2023-01-22T16:49:06.483Z,2.17
2023-01-22T16:51:37.303Z,2.35
2023-01-22T16:54:05.564Z,2.57
2023-01-22T16:56:33.739Z,3.10
2023-01-22T16:59:01.591Z,2.93
2023-01-22T17:01:29.589Z,3.23
2023-01-22T17:03:57.095Z,3.07
2023-01-22T17:06:25.921Z,3.13
2023-01-22T17:08:54.059Z,2.40
2023-01-22T17:11:21.561Z,2.40
2023-01-22T17:13:49.174Z,2.77
2023-01-22T17:16:17.008Z,2.27
2023-01-22T17:18:44.407Z,2.63
2023-01-22T17:21:13.749Z,2.43
2023-01-22T17:23:41.581Z,2.63
2023-01-22T17:26:10.463Z,3.07
2023-01-22T17:28:39.520Z,2.60
2023-01-22T17:31:12.363Z,2.40
2023-01-22T17:33:39.911Z,2.17
2023-01-22T17:36:08.366Z,3.23
2023-01-22T17:38:38.537Z,3.00
2023-01-22T17:41:11.201Z,2.73
2023-01-22T17:43:39.108Z,2.77
2023-01-22T17:46:11.246Z,2.53
2023-01-22T17:48:39.452Z,3.13
2023-01-22T17:51:08.730Z,2.50
2023-01-22T17:53:38.100Z,2.73
2023-01-22T17:56:08.842Z,2.90
2023-01-22T17:58:37.288Z,2.80
2023-01-22T18:01:06.351Z,3.07
2023-01-22T18:03:34.519Z,2.87
2023-01-22T18:06:02.286Z,3.50
2023-01-22T18:08:30.965Z,2.70
2023-01-22T18:10:58.821Z,2.70
2023-01-22T18:13:26.835Z,3.10
2023-01-22T18:15:54.861Z,3.13
2023-01-22T18:18:22.648Z,2.67
2023-01-22T18:20:50.142Z,2.87
2023-01-22T18:23:17.894Z,3.10
2023-01-22T18:25:58.836Z,3.03
2023-01-22T18:28:27.550Z,2.33
2023-01-22T18:30:55.352Z,2.97
2023-01-22T18:33:22.869Z,2.60
2023-01-22T18:35:51.354Z,2.63
2023-01-22T18:38:20.815Z,2.63
2023-01-22T18:40:48.845Z,2.77
2023-01-22T18:43:19.584Z,3.37
2023-01-22T18:45:47.094Z,2.70
2023-01-22T18:48:16.748Z,3.13
2023-01-22T18:50:44.833Z,2.67
2023-01-22T18:53:12.489Z,2.93
2023-01-22T18:55:39.959Z,2.87
2023-01-22T18:58:13.715Z,2.83
2023-01-22T19:00:41.066Z,2.90
2023-01-22T19:03:09.323Z,2.63
2023-01-22T19:05:39.357Z,2.93
2023-01-22T19:08:06.754Z,3.07
2023-01-22T19:10:34.092Z,3.53
2023-01-22T19:13:01.546Z,2.33
2023-01-22T19:15:32.467Z,2.73
2023-01-22T19:18:00.534Z,2.70
2023-01-22T19:20:28.022Z,2.87
2023-01-22T19:22:55.449Z,2.63
2023-01-22T19:25:22.952Z,3.30
2023-01-22T19:27:57.220Z,2.70
2023-01-22T19:30:34.289Z,2.67
2023-01-22T19:33:05.081Z,3.27
2023-01-22T19:35:32.432Z,3.03
2023-01-22T19:37:59.867Z,2.70
2023-01-22T19:40:27.377Z,2.80
2023-01-22T19:42:54.690Z,2.80
2023-01-22T19:45:22.087Z,2.77
2023-01-22T19:47:50.231Z,2.70
2023-01-22T19:50:22.691Z,2.77
2023-01-22T19:52:52.875Z,3.03
2023-01-22T19:55:21.279Z,2.43
2023-01-22T19:57:49.053Z,3.93
2023-01-22T20:00:17.541Z,3.00
2023-01-22T20:02:45.010Z,2.70
2023-01-22T20:05:12.994Z,2.90
2023-01-22T20:07:40.527Z,2.83
2023-01-22T20:10:08.104Z,2.60
2023-01-22T20:12:35.876Z,3.17
2023-01-22T20:15:03.845Z,2.30
2023-01-22T20:17:31.228Z,2.83
2023-01-22T20:19:58.734Z,3.10
2023-01-22T20:22:26.207Z,2.80
2023-01-22T20:24:53.564Z,2.40
2023-01-22T20:27:21.009Z,2.87
2023-01-22T20:29:48.720Z,2.60
2023-01-22T20:32:16.229Z,3.10
2023-01-22T20:34:48.707Z,2.33
2023-01-22T20:37:16.093Z,2.73
2023-01-22T20:39:43.509Z,2.47
2023-01-22T20:42:10.970Z,2.90
2023-01-22T20:44:38.521Z,2.73
2023-01-22T20:47:06.405Z,2.73
2023-01-22T20:49:33.887Z,2.40
2023-01-22T20:52:01.395Z,2.77
2023-01-22T20:54:29.486Z,3.07
2023-01-22T20:56:57.361Z,2.60
2023-01-22T20:59:27.303Z,2.80
2023-01-22T21:01:55.021Z,3.23
2023-01-22T21:04:23.411Z,2.83
2023-01-22T21:06:50.976Z,2.43
2023-01-22T21:09:18.655Z,2.70
2023-01-22T21:11:46.012Z,3.47
2023-01-22T21:14:16.408Z,2.80
2023-01-22T21:16:44.507Z,2.93
2023-01-22T21:19:14.838Z,2.97
2023-01-22T21:21:42.249Z,3.10
2023-01-22T21:24:09.629Z,3.03
2023-01-22T21:26:37.394Z,3.03
2023-01-22T21:29:09.181Z,3.17
2023-01-22T21:31:37.260Z,3.00
2023-01-22T21:34:05.887Z,2.40
2023-01-22T21:36:38.564Z,2.87
2023-01-22T21:39:07.534Z,3.13
2023-01-22T21:41:38.337Z,2.90
2023-01-22T21:44:24.726Z,3.20
2023-01-22T21:46:52.031Z,3.33
2023-01-22T21:49:22.572Z,2.87
2023-01-22T21:51:51.290Z,3.40
2023-01-22T21:54:20.213Z,2.97
2023-01-22T21:56:47.641Z,3.80
2023-01-22T21:59:14.944Z,3.70
2023-01-22T22:01:42.576Z,3.10
2023-01-22T22:04:10.053Z,4.13
2023-01-22T22:06:39.967Z,2.83
2023-01-22T22:09:08.836Z,2.67
2023-01-22T22:11:36.339Z,3.67
2023-01-22T22:14:08.477Z,3.23
2023-01-22T22:16:37.582Z,3.70
2023-01-22T22:19:05.218Z,2.43
2023-01-22T22:21:32.554Z,2.90
2023-01-22T22:23:59.915Z,3.47
2023-01-22T22:26:27.264Z,3.13
2023-01-22T22:28:54.732Z,3.37
2023-01-22T22:31:22.404Z,3.53
2023-01-22T22:33:50.701Z,2.73
2023-01-22T22:36:19.420Z,3.03
2023-01-22T22:38:47.149Z,2.63
2023-01-22T22:41:15.875Z,2.30
2023-01-22T22:43:44.527Z,3.00
2023-01-22T22:46:22.787Z,2.67
2023-01-22T22:48:50.468Z,3.23
2023-01-22T22:51:21.839Z,2.97
2023-01-22T22:53:51.920Z,2.57
2023-01-22T22:56:19.332Z,3.20
2023-01-22T22:58:46.989Z,2.57
2023-01-22T23:01:19.312Z,2.70
2023-01-22T23:03:49.555Z,2.83
2023-01-22T23:06:18.902Z,2.97
2023-01-22T23:08:48.019Z,2.20
2023-01-22T23:11:15.842Z,3.20
2023-01-22T23:13:47.623Z,2.80
2023-01-22T23:16:18.232Z,3.00
2023-01-22T23:18:46.199Z,2.70
2023-01-22T23:21:14.780Z,3.07
2023-01-22T23:23:42.178Z,2.30
2023-01-22T23:26:13.550Z,2.70
2023-01-22T23:28:40.858Z,2.53
2023-01-22T23:31:09.512Z,2.80
2023-01-22T23:33:37.383Z,2.43
2023-01-22T23:36:07.282Z,3.17
2023-01-22T23:38:34.716Z,3.03
2023-01-22T23:41:03.321Z,3.00
2023-01-22T23:43:30.648Z,2.63
2023-01-22T23:45:58.196Z,2.90
2023-01-22T23:48:25.566Z,3.47
2023-01-22T23:50:56.147Z,2.90
2023-01-22T23:53:23.566Z,3.10
2023-01-22T23:55:50.929Z,2.70
2023-01-22T23:58:18.251Z,2.93
